sensor_id;sensor_type;location;lat;lon;timestamp;temperature;humidity
35565;DHT22;21668;44.784;10.336;2022-08-11T00:00:31;23.00;90.90
35565;DHT22;21668;44.784;10.336;2022-08-11T00:03:37;23.00;91.00
35565;DHT22;21668;44.784;10.336;2022-08-11T00:06:44;23.00;91.00
35565;DHT22;21668;44.784;10.336;2022-08-11T00:09:49;22.80;91.20
35565;DHT22;21668;44.784;10.336;2022-08-11T00:12:55;22.80;91.30
35565;DHT22;21668;44.784;10.336;2022-08-11T00:15:59;22.70;91.50
35565;DHT22;21668;44.784;10.336;2022-08-11T00:19:03;22.70;91.50
35565;DHT22;21668;44.784;10.336;2022-08-11T00:22:07;22.70;91.70
35565;DHT22;21668;44.784;10.336;2022-08-11T00:25:16;22.70;91.60
35565;DHT22;21668;44.784;10.336;2022-08-11T00:28:24;22.70;91.50
35565;DHT22;21668;44.784;10.336;2022-08-11T00:31:29;22.70;92.00
35565;DHT22;21668;44.784;10.336;2022-08-11T00:34:35;22.70;92.00
35565;DHT22;21668;44.784;10.336;2022-08-11T00:37:43;22.60;91.90
35565;DHT22;21668;44.784;10.336;2022-08-11T00:40:54;22.60;92.00
35565;DHT22;21668;44.784;10.336;2022-08-11T00:47:08;22.60;92.10
35565;DHT22;21668;44.784;10.336;2022-08-11T00:50:35;22.60;92.20
35565;DHT22;21668;44.784;10.336;2022-08-11T00:53:58;22.50;92.10
35565;DHT22;21668;44.784;10.336;2022-08-11T01:00:11;22.40;92.10
35565;DHT22;21668;44.784;10.336;2022-08-11T01:12:48;22.30;92.10
35565;DHT22;21668;44.784;10.336;2022-08-11T01:15:57;22.40;92.10
35565;DHT22;21668;44.784;10.336;2022-08-11T01:25:44;22.40;92.30
35565;DHT22;21668;44.784;10.336;2022-08-11T01:58:15;22.00;93.40
35565;DHT22;21668;44.784;10.336;2022-08-11T02:04:58;21.90;93.30
35565;DHT22;21668;44.784;10.336;2022-08-11T02:14:36;21.80;93.80
35565;DHT22;21668;44.784;10.336;2022-08-11T02:17:49;21.80;93.80
35565;DHT22;21668;44.784;10.336;2022-08-11T02:20:59;21.80;93.80
35565;DHT22;21668;44.784;10.336;2022-08-11T02:24:25;21.70;93.80
35565;DHT22;21668;44.784;10.336;2022-08-11T02:27:37;21.70;93.80
35565;DHT22;21668;44.784;10.336;2022-08-11T02:40:46;21.70;92.70
35565;DHT22;21668;44.784;10.336;2022-08-11T02:43:59;21.80;92.90
35565;DHT22;21668;44.784;10.336;2022-08-11T02:47:08;21.70;93.20
35565;DHT22;21668;44.784;10.336;2022-08-11T02:50:18;21.70;93.20
35565;DHT22;21668;44.784;10.336;2022-08-11T02:53:36;21.70;93.10
35565;DHT22;21668;44.784;10.336;2022-08-11T03:00:09;21.50;93.10
35565;DHT22;21668;44.784;10.336;2022-08-11T03:03:32;21.50;93.40
35565;DHT22;21668;44.784;10.336;2022-08-11T03:09:54;21.50;93.90
35565;DHT22;21668;44.784;10.336;2022-08-11T03:16:24;21.50;94.00
35565;DHT22;21668;44.784;10.336;2022-08-11T03:32:34;21.80;93.90
35565;DHT22;21668;44.784;10.336;2022-08-11T03:35:42;21.90;93.80
35565;DHT22;21668;44.784;10.336;2022-08-11T03:38:53;21.90;93.80
35565;DHT22;21668;44.784;10.336;2022-08-11T03:42:09;21.90;93.80
35565;DHT22;21668;44.784;10.336;2022-08-11T03:48:24;21.90;93.80
35565;DHT22;21668;44.784;10.336;2022-08-11T03:52:15;21.70;94.00
35565;DHT22;21668;44.784;10.336;2022-08-11T04:05:19;21.70;93.60
35565;DHT22;21668;44.784;10.336;2022-08-11T04:14:41;21.40;93.90
35565;DHT22;21668;44.784;10.336;2022-08-11T04:18:28;21.40;94.10
35565;DHT22;21668;44.784;10.336;2022-08-11T04:21:50;21.40;94.20
35565;DHT22;21668;44.784;10.336;2022-08-11T04:48:57;21.40;93.90
35565;DHT22;21668;44.784;10.336;2022-08-11T04:52:45;21.40;93.80
35565;DHT22;21668;44.784;10.336;2022-08-11T04:56:04;21.50;93.80
35565;DHT22;21668;44.784;10.336;2022-08-11T05:06:56;21.70;93.40
35565;DHT22;21668;44.784;10.336;2022-08-11T05:13:28;21.70;93.70
35565;DHT22;21668;44.784;10.336;2022-08-11T05:16:52;21.70;93.70
35565;DHT22;21668;44.784;10.336;2022-08-11T05:20:15;21.80;93.90
35565;DHT22;21668;44.784;10.336;2022-08-11T05:23:46;21.70;94.40
35565;DHT22;21668;44.784;10.336;2022-08-11T05:27:10;21.90;93.80
35565;DHT22;21668;44.784;10.336;2022-08-11T05:30:35;21.90;93.80
35565;DHT22;21668;44.784;10.336;2022-08-11T05:34:02;21.90;94.00
35565;DHT22;21668;44.784;10.336;2022-08-11T05:40:32;22.00;93.90
35565;DHT22;21668;44.784;10.336;2022-08-11T05:43:55;22.10;94.00
35565;DHT22;21668;44.784;10.336;2022-08-11T05:47:20;22.10;93.90
35565;DHT22;21668;44.784;10.336;2022-08-11T05:50:58;22.30;94.10
35565;DHT22;21668;44.784;10.336;2022-08-11T05:54:22;22.50;94.00
35565;DHT22;21668;44.784;10.336;2022-08-11T05:57:45;22.60;94.10
35565;DHT22;21668;44.784;10.336;2022-08-11T06:00:49;22.80;93.90
35565;DHT22;21668;44.784;10.336;2022-08-11T06:03:53;23.00;93.40
35565;DHT22;21668;44.784;10.336;2022-08-11T06:07:16;23.10;93.20
35565;DHT22;21668;44.784;10.336;2022-08-11T06:10:39;23.40;93.10
35565;DHT22;21668;44.784;10.336;2022-08-11T06:13:43;23.50;92.80
35565;DHT22;21668;44.784;10.336;2022-08-11T06:16:48;23.80;92.90
35565;DHT22;21668;44.784;10.336;2022-08-11T06:19:57;23.70;93.40
35565;DHT22;21668;44.784;10.336;2022-08-11T06:23:02;23.80;93.40
35565;DHT22;21668;44.784;10.336;2022-08-11T06:26:12;23.80;93.40
35565;DHT22;21668;44.784;10.336;2022-08-11T06:29:16;24.00;93.00
35565;DHT22;21668;44.784;10.336;2022-08-11T06:32:28;24.30;92.50
35565;DHT22;21668;44.784;10.336;2022-08-11T06:42:04;24.60;91.90
35565;DHT22;21668;44.784;10.336;2022-08-11T06:48:24;24.60;92.30
35565;DHT22;21668;44.784;10.336;2022-08-11T06:51:28;24.60;92.40
35565;DHT22;21668;44.784;10.336;2022-08-11T06:54:34;24.60;92.30
35565;DHT22;21668;44.784;10.336;2022-08-11T06:57:38;24.60;92.30
35565;DHT22;21668;44.784;10.336;2022-08-11T07:01:03;24.90;91.40
35565;DHT22;21668;44.784;10.336;2022-08-11T07:04:09;25.00;91.00
35565;DHT22;21668;44.784;10.336;2022-08-11T07:14:19;26.00;90.20
35565;DHT22;21668;44.784;10.336;2022-08-11T07:17:45;26.20;90.20
35565;DHT22;21668;44.784;10.336;2022-08-11T07:20:52;26.60;89.70
35565;DHT22;21668;44.784;10.336;2022-08-11T07:24:28;26.60;90.00
35565;DHT22;21668;44.784;10.336;2022-08-11T07:27:55;26.80;89.60
35565;DHT22;21668;44.784;10.336;2022-08-11T07:34:46;27.70;88.50
35565;DHT22;21668;44.784;10.336;2022-08-11T07:37:55;29.10;86.30
35565;DHT22;21668;44.784;10.336;2022-08-11T07:40:59;30.30;83.30
35565;DHT22;21668;44.784;10.336;2022-08-11T07:44:03;30.80;83.50
35565;DHT22;21668;44.784;10.336;2022-08-11T07:47:13;31.00;82.80
35565;DHT22;21668;44.784;10.336;2022-08-11T07:50:39;31.40;83.10
35565;DHT22;21668;44.784;10.336;2022-08-11T07:54:01;31.40;82.00
35565;DHT22;21668;44.784;10.336;2022-08-11T07:57:10;31.10;82.50
35565;DHT22;21668;44.784;10.336;2022-08-11T08:00:36;31.00;83.30
35565;DHT22;21668;44.784;10.336;2022-08-11T08:03:59;30.60;83.20
35565;DHT22;21668;44.784;10.336;2022-08-11T08:07:21;30.10;83.60
35565;DHT22;21668;44.784;10.336;2022-08-11T08:10:43;29.70;85.00
35565;DHT22;21668;44.784;10.336;2022-08-11T08:14:06;29.50;85.70
35565;DHT22;21668;44.784;10.336;2022-08-11T08:17:29;29.40;86.40
35565;DHT22;21668;44.784;10.336;2022-08-11T08:20:52;29.30;86.60
35565;DHT22;21668;44.784;10.336;2022-08-11T08:23:57;29.20;87.40
35565;DHT22;21668;44.784;10.336;2022-08-11T08:27:01;29.20;87.60
35565;DHT22;21668;44.784;10.336;2022-08-11T08:30:06;29.10;85.20
35565;DHT22;21668;44.784;10.336;2022-08-11T08:33:29;28.90;85.80
35565;DHT22;21668;44.784;10.336;2022-08-11T08:36:33;28.90;87.80
35565;DHT22;21668;44.784;10.336;2022-08-11T08:39:37;29.10;87.70
35565;DHT22;21668;44.784;10.336;2022-08-11T08:42:43;29.00;87.90
35565;DHT22;21668;44.784;10.336;2022-08-11T08:45:48;29.10;87.30
35565;DHT22;21668;44.784;10.336;2022-08-11T08:48:52;29.10;85.80
35565;DHT22;21668;44.784;10.336;2022-08-11T08:51:57;29.20;82.60
35565;DHT22;21668;44.784;10.336;2022-08-11T08:55:04;29.10;83.50
35565;DHT22;21668;44.784;10.336;2022-08-11T08:58:08;29.10;81.20
35565;DHT22;21668;44.784;10.336;2022-08-11T09:01:12;29.10;83.20
35565;DHT22;21668;44.784;10.336;2022-08-11T09:04:17;29.20;81.50
35565;DHT22;21668;44.784;10.336;2022-08-11T09:07:22;29.30;81.30
35565;DHT22;21668;44.784;10.336;2022-08-11T09:10:29;29.40;80.90
35565;DHT22;21668;44.784;10.336;2022-08-11T09:13:33;29.50;81.20
35565;DHT22;21668;44.784;10.336;2022-08-11T09:16:37;29.50;79.60
35565;DHT22;21668;44.784;10.336;2022-08-11T09:19:41;29.40;78.60
35565;DHT22;21668;44.784;10.336;2022-08-11T09:22:46;29.20;80.30
35565;DHT22;21668;44.784;10.336;2022-08-11T09:26:08;29.20;79.80
35565;DHT22;21668;44.784;10.336;2022-08-11T09:29:31;29.20;81.30
35565;DHT22;21668;44.784;10.336;2022-08-11T09:32:36;29.20;80.60
35565;DHT22;21668;44.784;10.336;2022-08-11T09:35:41;29.20;80.60
35565;DHT22;21668;44.784;10.336;2022-08-11T09:38:49;29.40;78.80
35565;DHT22;21668;44.784;10.336;2022-08-11T09:42:31;29.40;77.90
35565;DHT22;21668;44.784;10.336;2022-08-11T09:45:54;29.40;79.00
35565;DHT22;21668;44.784;10.336;2022-08-11T09:48:59;29.30;78.90
35565;DHT22;21668;44.784;10.336;2022-08-11T09:52:03;29.40;78.00
35565;DHT22;21668;44.784;10.336;2022-08-11T09:55:13;29.40;78.00
35565;DHT22;21668;44.784;10.336;2022-08-11T09:58:16;29.50;78.50
35565;DHT22;21668;44.784;10.336;2022-08-11T10:01:21;29.60;78.20
35565;DHT22;21668;44.784;10.336;2022-08-11T10:04:42;29.70;79.40
35565;DHT22;21668;44.784;10.336;2022-08-11T10:07:49;29.80;78.20
35565;DHT22;21668;44.784;10.336;2022-08-11T10:10:55;29.80;77.60
35565;DHT22;21668;44.784;10.336;2022-08-11T10:14:00;29.70;78.40
35565;DHT22;21668;44.784;10.336;2022-08-11T10:17:23;29.60;78.50
35565;DHT22;21668;44.784;10.336;2022-08-11T10:20:28;29.50;79.50
35565;DHT22;21668;44.784;10.336;2022-08-11T10:23:33;29.50;79.70
35565;DHT22;21668;44.784;10.336;2022-08-11T10:26:56;29.70;80.50
35565;DHT22;21668;44.784;10.336;2022-08-11T10:30:05;29.90;80.40
35565;DHT22;21668;44.784;10.336;2022-08-11T10:33:28;29.90;79.40
35565;DHT22;21668;44.784;10.336;2022-08-11T10:36:50;29.90;79.60
35565;DHT22;21668;44.784;10.336;2022-08-11T10:39:55;30.10;80.40
35565;DHT22;21668;44.784;10.336;2022-08-11T10:42:59;30.20;79.50
35565;DHT22;21668;44.784;10.336;2022-08-11T10:46:09;30.30;78.00
35565;DHT22;21668;44.784;10.336;2022-08-11T10:49:31;30.20;78.00
35565;DHT22;21668;44.784;10.336;2022-08-11T10:52:35;30.30;78.30
35565;DHT22;21668;44.784;10.336;2022-08-11T10:55:58;30.40;78.70
35565;DHT22;21668;44.784;10.336;2022-08-11T10:59:21;30.50;79.10
35565;DHT22;21668;44.784;10.336;2022-08-11T11:02:25;30.40;78.80
35565;DHT22;21668;44.784;10.336;2022-08-11T11:05:30;30.60;79.30
35565;DHT22;21668;44.784;10.336;2022-08-11T11:08:36;30.60;78.40
35565;DHT22;21668;44.784;10.336;2022-08-11T11:12:06;30.70;77.40
35565;DHT22;21668;44.784;10.336;2022-08-11T11:15:30;30.70;76.90
35565;DHT22;21668;44.784;10.336;2022-08-11T11:18:53;30.80;76.10
35565;DHT22;21668;44.784;10.336;2022-08-11T11:21:57;31.00;75.70
35565;DHT22;21668;44.784;10.336;2022-08-11T11:25:34;31.20;76.10
35565;DHT22;21668;44.784;10.336;2022-08-11T11:35:16;31.50;74.60
35565;DHT22;21668;44.784;10.336;2022-08-11T11:38:23;31.40;74.50
35565;DHT22;21668;44.784;10.336;2022-08-11T11:41:27;31.40;72.90
35565;DHT22;21668;44.784;10.336;2022-08-11T11:44:31;31.40;73.70
35565;DHT22;21668;44.784;10.336;2022-08-11T11:47:35;31.40;72.70
35565;DHT22;21668;44.784;10.336;2022-08-11T11:50:39;31.40;73.70
35565;DHT22;21668;44.784;10.336;2022-08-11T11:53:43;31.40;74.50
35565;DHT22;21668;44.784;10.336;2022-08-11T11:56:47;33.00;74.40
35565;DHT22;21668;44.784;10.336;2022-08-11T11:59:53;31.40;73.40
35565;DHT22;21668;44.784;10.336;2022-08-11T12:03:16;31.70;73.30
35565;DHT22;21668;44.784;10.336;2022-08-11T12:06:21;31.70;72.50
35565;DHT22;21668;44.784;10.336;2022-08-11T12:09:25;31.40;73.20
35565;DHT22;21668;44.784;10.336;2022-08-11T12:12:29;31.40;73.00
35565;DHT22;21668;44.784;10.336;2022-08-11T12:15:52;31.40;72.90
35565;DHT22;21668;44.784;10.336;2022-08-11T12:18:57;31.40;73.30
35565;DHT22;21668;44.784;10.336;2022-08-11T12:22:02;31.50;72.60
35565;DHT22;21668;44.784;10.336;2022-08-11T12:25:25;31.70;72.00
35565;DHT22;21668;44.784;10.336;2022-08-11T12:28:47;31.70;70.50
35565;DHT22;21668;44.784;10.336;2022-08-11T12:31:53;31.70;71.20
35565;DHT22;21668;44.784;10.336;2022-08-11T12:34:57;31.60;71.70
35565;DHT22;21668;44.784;10.336;2022-08-11T12:38:01;31.50;70.50
35565;DHT22;21668;44.784;10.336;2022-08-11T12:41:05;31.60;72.40
35565;DHT22;21668;44.784;10.336;2022-08-11T12:44:28;31.70;71.60
35565;DHT22;21668;44.784;10.336;2022-08-11T12:47:50;31.70;70.60
35565;DHT22;21668;44.784;10.336;2022-08-11T12:51:15;31.50;71.70
35565;DHT22;21668;44.784;10.336;2022-08-11T12:57:44;31.80;71.80
35565;DHT22;21668;44.784;10.336;2022-08-11T13:01:07;31.80;69.90
35565;DHT22;21668;44.784;10.336;2022-08-11T13:04:30;31.70;69.80
35565;DHT22;21668;44.784;10.336;2022-08-11T13:07:52;31.40;71.30
35565;DHT22;21668;44.784;10.336;2022-08-11T13:10:57;31.50;71.00
35565;DHT22;21668;44.784;10.336;2022-08-11T13:14:19;31.30;71.00
35565;DHT22;21668;44.784;10.336;2022-08-11T13:17:24;31.40;72.00
35565;DHT22;21668;44.784;10.336;2022-08-11T13:20:28;31.40;71.50
35565;DHT22;21668;44.784;10.336;2022-08-11T13:23:32;31.50;72.00
35565;DHT22;21668;44.784;10.336;2022-08-11T13:26:36;31.60;72.20
35565;DHT22;21668;44.784;10.336;2022-08-11T13:29:41;31.60;72.60
35565;DHT22;21668;44.784;10.336;2022-08-11T13:32:45;31.80;71.90
35565;DHT22;21668;44.784;10.336;2022-08-11T13:35:49;32.00;71.10
35565;DHT22;21668;44.784;10.336;2022-08-11T13:38:54;31.90;71.30
35565;DHT22;21668;44.784;10.336;2022-08-11T13:41:59;31.80;72.50
35565;DHT22;21668;44.784;10.336;2022-08-11T13:45:03;31.60;71.90
35565;DHT22;21668;44.784;10.336;2022-08-11T13:48:07;31.60;71.80
35565;DHT22;21668;44.784;10.336;2022-08-11T13:51:11;31.60;71.80
35565;DHT22;21668;44.784;10.336;2022-08-11T13:54:34;31.70;71.30
35565;DHT22;21668;44.784;10.336;2022-08-11T13:57:39;31.80;71.20
35565;DHT22;21668;44.784;10.336;2022-08-11T14:00:43;31.80;71.60
35565;DHT22;21668;44.784;10.336;2022-08-11T14:03:48;31.70;70.40
35565;DHT22;21668;44.784;10.336;2022-08-11T14:06:53;31.70;71.40
35565;DHT22;21668;44.784;10.336;2022-08-11T14:09:58;31.70;71.30
35565;DHT22;21668;44.784;10.336;2022-08-11T14:13:05;31.70;71.00
35565;DHT22;21668;44.784;10.336;2022-08-11T14:16:29;31.80;70.50
35565;DHT22;21668;44.784;10.336;2022-08-11T14:19:40;31.80;70.00
35565;DHT22;21668;44.784;10.336;2022-08-11T14:22:44;31.60;70.60
35565;DHT22;21668;44.784;10.336;2022-08-11T14:25:48;31.60;70.40
35565;DHT22;21668;44.784;10.336;2022-08-11T14:29:12;31.80;69.70
35565;DHT22;21668;44.784;10.336;2022-08-11T14:32:16;31.60;69.60
35565;DHT22;21668;44.784;10.336;2022-08-11T14:35:23;31.60;70.40
35565;DHT22;21668;44.784;10.336;2022-08-11T14:38:28;31.70;70.40
35565;DHT22;21668;44.784;10.336;2022-08-11T14:41:31;31.70;70.60
35565;DHT22;21668;44.784;10.336;2022-08-11T14:44:55;31.70;70.60
35565;DHT22;21668;44.784;10.336;2022-08-11T14:48:17;31.80;70.30
35565;DHT22;21668;44.784;10.336;2022-08-11T14:51:21;31.90;70.40
35565;DHT22;21668;44.784;10.336;2022-08-11T14:54:27;31.90;70.10
35565;DHT22;21668;44.784;10.336;2022-08-11T14:57:50;31.90;70.20
35565;DHT22;21668;44.784;10.336;2022-08-11T15:00:57;31.80;70.00
35565;DHT22;21668;44.784;10.336;2022-08-11T15:04:01;31.80;70.30
35565;DHT22;21668;44.784;10.336;2022-08-11T15:07:05;31.70;69.70
35565;DHT22;21668;44.784;10.336;2022-08-11T15:10:09;31.70;70.10
35565;DHT22;21668;44.784;10.336;2022-08-11T15:13:16;31.60;69.20
35565;DHT22;21668;44.784;10.336;2022-08-11T15:16:21;31.50;70.10
35565;DHT22;21668;44.784;10.336;2022-08-11T15:19:43;31.40;70.70
35565;DHT22;21668;44.784;10.336;2022-08-11T15:23:07;31.60;70.60
35565;DHT22;21668;44.784;10.336;2022-08-11T15:26:31;31.60;71.00
35565;DHT22;21668;44.784;10.336;2022-08-11T15:29:55;31.70;70.30
35565;DHT22;21668;44.784;10.336;2022-08-11T15:33:18;31.80;70.00
35565;DHT22;21668;44.784;10.336;2022-08-11T15:36:41;31.80;69.90
35565;DHT22;21668;44.784;10.336;2022-08-11T15:40:23;31.60;70.20
35565;DHT22;21668;44.784;10.336;2022-08-11T15:43:51;31.70;69.60
35565;DHT22;21668;44.784;10.336;2022-08-11T15:47:13;31.60;70.30
35565;DHT22;21668;44.784;10.336;2022-08-11T15:50:18;31.60;69.80
35565;DHT22;21668;44.784;10.336;2022-08-11T15:53:41;31.50;69.30
35565;DHT22;21668;44.784;10.336;2022-08-11T15:56:47;31.50;70.00
35565;DHT22;21668;44.784;10.336;2022-08-11T15:59:52;31.40;70.40
35565;DHT22;21668;44.784;10.336;2022-08-11T16:03:14;31.40;70.30
35565;DHT22;21668;44.784;10.336;2022-08-11T16:12:51;30.10;69.00
35565;DHT22;21668;44.784;10.336;2022-08-11T16:16:08;31.30;70.10
35565;DHT22;21668;44.784;10.336;2022-08-11T16:19:19;31.30;69.50
35565;DHT22;21668;44.784;10.336;2022-08-11T16:22:28;31.30;69.60
35565;DHT22;21668;44.784;10.336;2022-08-11T16:25:39;31.20;70.50
35565;DHT22;21668;44.784;10.336;2022-08-11T16:28:44;31.10;70.20
35565;DHT22;21668;44.784;10.336;2022-08-11T16:31:49;31.20;69.70
35565;DHT22;21668;44.784;10.336;2022-08-11T16:35:15;31.20;70.50
35565;DHT22;21668;44.784;10.336;2022-08-11T16:38:37;31.10;71.20
35565;DHT22;21668;44.784;10.336;2022-08-11T16:41:43;31.10;70.60
35565;DHT22;21668;44.784;10.336;2022-08-11T16:45:06;31.10;70.60
35565;DHT22;21668;44.784;10.336;2022-08-11T16:48:33;31.10;70.30
35565;DHT22;21668;44.784;10.336;2022-08-11T16:51:37;31.10;69.40
35565;DHT22;21668;44.784;10.336;2022-08-11T16:54:42;31.00;69.70
35565;DHT22;21668;44.784;10.336;2022-08-11T16:57:46;31.00;69.70
35565;DHT22;21668;44.784;10.336;2022-08-11T17:01:08;31.00;69.70
35565;DHT22;21668;44.784;10.336;2022-08-11T17:07:37;30.90;70.50
35565;DHT22;21668;44.784;10.336;2022-08-11T17:11:01;30.80;70.00
35565;DHT22;21668;44.784;10.336;2022-08-11T17:14:47;30.90;69.80
35565;DHT22;21668;44.784;10.336;2022-08-11T17:17:52;30.80;70.70
35565;DHT22;21668;44.784;10.336;2022-08-11T17:20:57;31.00;70.10
35565;DHT22;21668;44.784;10.336;2022-08-11T17:27:03;32.50;68.50
35565;DHT22;21668;44.784;10.336;2022-08-11T17:30:10;33.00;68.20
35565;DHT22;21668;44.784;10.336;2022-08-11T17:33:16;33.20;67.60
35565;DHT22;21668;44.784;10.336;2022-08-11T17:36:39;33.50;67.10
35565;DHT22;21668;44.784;10.336;2022-08-11T17:39:45;33.60;67.10
35565;DHT22;21668;44.784;10.336;2022-08-11T17:42:50;34.10;66.40
35565;DHT22;21668;44.784;10.336;2022-08-11T17:46:14;34.50;65.70
35565;DHT22;21668;44.784;10.336;2022-08-11T17:49:37;34.30;65.50
35565;DHT22;21668;44.784;10.336;2022-08-11T17:52:41;33.60;65.70
35565;DHT22;21668;44.784;10.336;2022-08-11T17:56:05;33.40;66.20
35565;DHT22;21668;44.784;10.336;2022-08-11T17:59:28;32.80;66.60
35565;DHT22;21668;44.784;10.336;2022-08-11T18:02:50;32.10;67.10
35565;DHT22;21668;44.784;10.336;2022-08-11T18:06:14;31.40;68.00
35565;DHT22;21668;44.784;10.336;2022-08-11T18:09:21;31.00;69.20
35565;DHT22;21668;44.784;10.336;2022-08-11T18:12:43;30.60;69.50
35565;DHT22;21668;44.784;10.336;2022-08-11T18:16:06;30.40;69.40
35565;DHT22;21668;44.784;10.336;2022-08-11T18:19:29;30.00;69.50
35565;DHT22;21668;44.784;10.336;2022-08-11T18:22:51;29.50;70.30
35565;DHT22;21668;44.784;10.336;2022-08-11T18:26:16;29.30;70.30
35565;DHT22;21668;44.784;10.336;2022-08-11T18:29:40;29.10;70.80
35565;DHT22;21668;44.784;10.336;2022-08-11T18:33:03;28.80;71.00
35565;DHT22;21668;44.784;10.336;2022-08-11T18:36:28;28.60;71.50
35565;DHT22;21668;44.784;10.336;2022-08-11T18:39:59;28.30;71.60
35565;DHT22;21668;44.784;10.336;2022-08-11T18:43:23;28.30;71.80
35565;DHT22;21668;44.784;10.336;2022-08-11T18:46:46;28.10;72.10
35565;DHT22;21668;44.784;10.336;2022-08-11T18:50:10;28.00;72.50
35565;DHT22;21668;44.784;10.336;2022-08-11T18:53:34;27.90;72.90
35565;DHT22;21668;44.784;10.336;2022-08-11T18:56:58;27.80;73.50
35565;DHT22;21668;44.784;10.336;2022-08-11T19:00:22;27.60;73.60
35565;DHT22;21668;44.784;10.336;2022-08-11T19:03:44;27.60;73.80
35565;DHT22;21668;44.784;10.336;2022-08-11T19:07:08;27.50;73.80
35565;DHT22;21668;44.784;10.336;2022-08-11T19:10:32;27.40;74.40
35565;DHT22;21668;44.784;10.336;2022-08-11T19:13:54;30.80;76.40
35565;DHT22;21668;44.784;10.336;2022-08-11T19:17:16;27.40;73.90
35565;DHT22;21668;44.784;10.336;2022-08-11T19:20:40;27.20;74.00
35565;DHT22;21668;44.784;10.336;2022-08-11T19:24:03;27.20;74.10
35565;DHT22;21668;44.784;10.336;2022-08-11T19:27:25;27.10;74.30
35565;DHT22;21668;44.784;10.336;2022-08-11T19:30:48;27.10;74.20
35565;DHT22;21668;44.784;10.336;2022-08-11T19:34:15;27.10;74.50
35565;DHT22;21668;44.784;10.336;2022-08-11T19:37:37;27.00;74.60
35565;DHT22;21668;44.784;10.336;2022-08-11T19:41:00;26.90;74.70
35565;DHT22;21668;44.784;10.336;2022-08-11T19:44:22;26.80;74.90
35565;DHT22;21668;44.784;10.336;2022-08-11T19:47:45;26.80;75.50
35565;DHT22;21668;44.784;10.336;2022-08-11T19:51:07;26.70;75.30
35565;DHT22;21668;44.784;10.336;2022-08-11T19:54:31;26.70;75.40
35565;DHT22;21668;44.784;10.336;2022-08-11T19:57:54;26.70;76.60
35565;DHT22;21668;44.784;10.336;2022-08-11T20:01:16;26.70;75.30
35565;DHT22;21668;44.784;10.336;2022-08-11T20:04:39;26.60;75.60
35565;DHT22;21668;44.784;10.336;2022-08-11T20:08:01;26.60;75.30
35565;DHT22;21668;44.784;10.336;2022-08-11T20:11:25;26.50;77.30
35565;DHT22;21668;44.784;10.336;2022-08-11T20:14:48;26.40;76.00
35565;DHT22;21668;44.784;10.336;2022-08-11T20:18:11;26.40;75.80
35565;DHT22;21668;44.784;10.336;2022-08-11T20:21:34;26.30;76.90
35565;DHT22;21668;44.784;10.336;2022-08-11T20:24:58;26.30;76.40
35565;DHT22;21668;44.784;10.336;2022-08-11T20:28:20;26.20;76.30
35565;DHT22;21668;44.784;10.336;2022-08-11T20:31:43;26.10;76.40
35565;DHT22;21668;44.784;10.336;2022-08-11T20:35:06;25.90;76.70
35565;DHT22;21668;44.784;10.336;2022-08-11T20:38:30;25.80;76.90
35565;DHT22;21668;44.784;10.336;2022-08-11T20:41:53;25.80;77.10
35565;DHT22;21668;44.784;10.336;2022-08-11T20:45:16;25.70;77.20
35565;DHT22;21668;44.784;10.336;2022-08-11T20:48:39;25.60;77.50
35565;DHT22;21668;44.784;10.336;2022-08-11T20:52:02;25.50;77.40
35565;DHT22;21668;44.784;10.336;2022-08-11T20:55:24;25.60;77.40
35565;DHT22;21668;44.784;10.336;2022-08-11T20:58:46;25.50;77.20
35565;DHT22;21668;44.784;10.336;2022-08-11T21:02:09;25.40;77.30
35565;DHT22;21668;44.784;10.336;2022-08-11T21:05:33;25.50;77.80
35565;DHT22;21668;44.784;10.336;2022-08-11T21:08:56;25.40;77.50
35565;DHT22;21668;44.784;10.336;2022-08-11T21:12:19;25.40;77.30
35565;DHT22;21668;44.784;10.336;2022-08-11T21:15:41;25.40;77.80
35565;DHT22;21668;44.784;10.336;2022-08-11T21:19:12;25.30;77.50
35565;DHT22;21668;44.784;10.336;2022-08-11T21:22:37;25.30;77.50
35565;DHT22;21668;44.784;10.336;2022-08-11T21:26:05;25.20;77.70
35565;DHT22;21668;44.784;10.336;2022-08-11T21:29:28;25.20;78.10
35565;DHT22;21668;44.784;10.336;2022-08-11T21:32:51;25.20;78.20
35565;DHT22;21668;44.784;10.336;2022-08-11T21:36:14;25.20;78.10
35565;DHT22;21668;44.784;10.336;2022-08-11T21:39:37;25.20;78.10
35565;DHT22;21668;44.784;10.336;2022-08-11T21:43:01;25.30;78.50
35565;DHT22;21668;44.784;10.336;2022-08-11T21:46:25;25.30;78.00
35565;DHT22;21668;44.784;10.336;2022-08-11T21:49:48;25.30;77.90
35565;DHT22;21668;44.784;10.336;2022-08-11T21:53:10;25.40;78.10
35565;DHT22;21668;44.784;10.336;2022-08-11T21:56:32;25.40;78.30
35565;DHT22;21668;44.784;10.336;2022-08-11T21:59:56;25.40;78.20
35565;DHT22;21668;44.784;10.336;2022-08-11T22:03:20;25.40;78.50
35565;DHT22;21668;44.784;10.336;2022-08-11T22:06:42;25.40;78.90
35565;DHT22;21668;44.784;10.336;2022-08-11T22:10:05;25.40;79.30
35565;DHT22;21668;44.784;10.336;2022-08-11T22:13:27;25.40;79.70
35565;DHT22;21668;44.784;10.336;2022-08-11T22:16:50;25.30;79.80
35565;DHT22;21668;44.784;10.336;2022-08-11T22:20:13;25.30;80.00
35565;DHT22;21668;44.784;10.336;2022-08-11T22:23:36;25.30;80.00
35565;DHT22;21668;44.784;10.336;2022-08-11T22:27:00;25.20;81.40
35565;DHT22;21668;44.784;10.336;2022-08-11T22:30:22;25.10;81.50
35565;DHT22;21668;44.784;10.336;2022-08-11T22:33:45;25.00;81.50
35565;DHT22;21668;44.784;10.336;2022-08-11T22:37:07;25.00;81.00
35565;DHT22;21668;44.784;10.336;2022-08-11T22:40:31;25.10;81.60
35565;DHT22;21668;44.784;10.336;2022-08-11T22:43:53;25.10;83.20
35565;DHT22;21668;44.784;10.336;2022-08-11T22:47:15;25.10;87.40
35565;DHT22;21668;44.784;10.336;2022-08-11T22:50:38;24.90;94.00
35565;DHT22;21668;44.784;10.336;2022-08-11T22:54:01;24.30;96.40
35565;DHT22;21668;44.784;10.336;2022-08-11T22:57:24;23.90;96.40
35565;DHT22;21668;44.784;10.336;2022-08-11T23:00:46;24.60;98.60
35565;DHT22;21668;44.784;10.336;2022-08-11T23:04:08;22.80;99.90
35565;DHT22;21668;44.784;10.336;2022-08-11T23:07:33;22.70;99.90
35565;DHT22;21668;44.784;10.336;2022-08-11T23:10:56;22.60;99.90
35565;DHT22;21668;44.784;10.336;2022-08-11T23:14:19;22.40;99.90
35565;DHT22;21668;44.784;10.336;2022-08-11T23:17:42;22.20;99.90
35565;DHT22;21668;44.784;10.336;2022-08-11T23:21:04;22.00;99.90
35565;DHT22;21668;44.784;10.336;2022-08-11T23:24:27;21.70;99.90
35565;DHT22;21668;44.784;10.336;2022-08-11T23:27:49;21.70;99.90